Terminal Aerodrome Forecast
Issued by NWS

Home | Current Version | Previous Version | Text Only | Print | Product List | Glossary On
Versions: 1 2 3 4 5 6 7 8 9 10 11 12 13 14 15 16 17 18 19 20 21 22 23 24 25 26
000
FTUS45 KTWC 260919 AAA
TAFOLS
TAF AMD
KOLS 260919Z 2609/2706 18010KT P6SM SCT030
     FM261100 19010KT P6SM BKN030
     FM261700 20016G25KT P6SM SCT050
     FM270100 21008KT P6SM SKC=

USA.gov is the U.S. government's official web portal to all federal, state and local government web resources and services.